createdAt,value
2022-10-25T00:01:48.083Z,1.30
2022-10-25T00:04:15.768Z,1.65
2022-10-25T00:06:47.596Z,1.73
2022-10-25T00:09:47.490Z,1.58
2022-10-25T00:12:13.991Z,1.80
2022-10-25T00:14:45.241Z,2.03
2022-10-25T00:17:17.600Z,1.50
2022-10-25T00:19:54.861Z,1.23
2022-10-25T00:22:24.513Z,1.88
2022-10-25T00:24:50.999Z,1.73
2022-10-25T00:27:22.992Z,1.80
2022-10-25T00:29:56.879Z,2.03
2022-10-25T00:32:29.545Z,1.95
2022-10-25T00:35:08.891Z,1.80
2022-10-25T00:40:09.677Z,1.92
2022-10-25T00:42:39.257Z,1.65
2022-10-25T00:45:31.606Z,1.77
2022-10-25T00:48:12.378Z,1.77
2022-10-25T00:50:51.096Z,2.17
2022-10-25T00:56:18.433Z,1.85
2022-10-25T00:58:51.326Z,2.00
2022-10-25T01:01:21.408Z,1.92
2022-10-25T01:03:50.040Z,1.80
2022-10-25T01:06:37.461Z,2.33
2022-10-25T01:14:27.624Z,1.90
2022-10-25T01:17:19.589Z,2.00
2022-10-25T01:20:08.399Z,1.63
2022-10-25T01:22:40.769Z,1.92
2022-10-25T01:25:26.223Z,2.15
2022-10-25T01:28:05.208Z,1.73
2022-10-25T01:30:31.594Z,2.17
2022-10-25T01:33:18.282Z,2.78
2022-10-25T01:36:09.377Z,1.90
2022-10-25T01:38:52.986Z,2.20
2022-10-25T01:44:42.727Z,2.08
2022-10-25T01:47:25.089Z,1.88
2022-10-25T01:50:03.194Z,1.80
2022-10-25T01:52:33.009Z,2.20
2022-10-25T01:58:06.172Z,2.00
2022-10-25T02:00:37.647Z,1.95
2022-10-25T02:03:13.029Z,2.58
2022-10-25T02:06:04.188Z,2.50
2022-10-25T02:09:00.612Z,2.10
2022-10-25T02:11:37.408Z,2.55
2022-10-25T02:14:30.124Z,2.30
2022-10-25T02:17:28.463Z,2.17
2022-10-25T02:20:08.096Z,2.13
2022-10-25T02:22:38.090Z,2.25
2022-10-25T02:25:18.528Z,2.17
2022-10-25T02:27:51.579Z,2.15
2022-10-25T02:30:42.785Z,2.47
2022-10-25T02:33:16.506Z,1.98
2022-10-25T02:39:01.707Z,2.30
2022-10-25T02:41:37.891Z,2.35
2022-10-25T02:44:07.372Z,2.40
2022-10-25T02:46:36.103Z,2.55
2022-10-25T02:49:04.208Z,2.90
2022-10-25T02:51:38.455Z,2.47
2022-10-25T02:54:13.854Z,2.45
2022-10-25T02:56:50.883Z,2.80
2022-10-25T02:59:32.335Z,2.80
2022-10-25T03:01:59.134Z,2.92
2022-10-25T03:04:31.415Z,2.85
2022-10-25T03:07:03.845Z,3.33
2022-10-25T03:09:40.827Z,3.50
2022-10-25T03:12:10.193Z,2.90
2022-10-25T03:17:27.593Z,2.92
2022-10-25T03:20:11.049Z,3.20
2022-10-25T03:22:52.810Z,3.03
2022-10-25T03:30:53.742Z,2.70
2022-10-25T03:33:26.240Z,2.70
2022-10-25T03:35:57.035Z,3.03
2022-10-25T03:38:29.029Z,3.10
2022-10-25T03:40:58.309Z,2.80
2022-10-25T03:43:50.515Z,3.10
2022-10-25T03:51:43.126Z,2.88
2022-10-25T03:59:40.756Z,3.50
2022-10-25T04:02:07.329Z,4.30
2022-10-25T04:04:52.434Z,3.25
2022-10-25T04:07:29.348Z,2.92
2022-10-25T04:10:15.496Z,3.35
2022-10-25T04:12:45.223Z,3.08
2022-10-25T04:15:20.807Z,3.45
2022-10-25T04:18:01.174Z,2.75
2022-10-25T04:26:24.897Z,2.60
2022-10-25T04:29:02.473Z,2.67
2022-10-25T04:31:39.779Z,2.67
2022-10-25T04:34:09.137Z,3.08
2022-10-25T04:44:42.365Z,3.03
2022-10-25T04:47:18.060Z,2.70
2022-10-25T04:52:45.500Z,3.22
2022-10-25T04:55:17.325Z,3.10
2022-10-25T04:57:46.250Z,3.60
2022-10-25T05:03:43.555Z,3.35
2022-10-25T05:06:14.170Z,3.67
2022-10-25T05:08:47.652Z,3.47
2022-10-25T05:11:27.772Z,3.65
2022-10-25T05:13:54.388Z,3.92
2022-10-25T05:16:33.262Z,5.05
2022-10-25T05:19:27.060Z,3.45
2022-10-25T05:22:02.157Z,3.95
2022-10-25T05:24:35.201Z,4.00
2022-10-25T05:27:15.708Z,4.05
2022-10-25T05:29:48.867Z,4.30
2022-10-25T05:32:38.410Z,4.13
2022-10-25T05:35:12.307Z,3.72
2022-10-25T05:37:51.068Z,4.07
2022-10-25T05:43:10.158Z,4.00
2022-10-25T05:45:51.156Z,4.05
2022-10-25T05:48:45.766Z,3.95
2022-10-25T05:51:37.638Z,3.90
2022-10-25T05:54:13.626Z,4.18
2022-10-25T05:56:43.453Z,4.07
2022-10-25T05:59:30.227Z,4.03
2022-10-25T06:05:07.371Z,3.75
2022-10-25T06:07:41.613Z,4.22
2022-10-25T06:10:45.175Z,4.35
2022-10-25T06:15:52.508Z,3.92
2022-10-25T06:18:28.971Z,4.10
2022-10-25T06:20:55.903Z,4.40
2022-10-25T06:23:38.922Z,4.20
2022-10-25T06:26:10.696Z,4.13
2022-10-25T06:28:46.196Z,5.30
2022-10-25T06:31:30.463Z,4.35
2022-10-25T06:34:01.093Z,3.85
2022-10-25T06:36:35.482Z,4.20
2022-10-25T06:39:08.957Z,4.32
2022-10-25T06:41:44.794Z,4.07
2022-10-25T06:44:21.622Z,4.50
2022-10-25T06:47:16.843Z,4.15
2022-10-25T06:50:23.862Z,4.70
2022-10-25T06:53:06.842Z,3.80
2022-10-25T06:55:36.551Z,3.20
2022-10-25T06:58:11.178Z,3.42
2022-10-25T07:00:54.602Z,3.40
2022-10-25T07:03:29.878Z,3.42
2022-10-25T07:11:34.077Z,3.67
2022-10-25T07:14:37.706Z,3.30
2022-10-25T07:19:46.498Z,3.78
2022-10-25T07:22:20.806Z,3.85
2022-10-25T07:24:53.346Z,3.78
2022-10-25T07:27:23.969Z,4.07
2022-10-25T07:30:18.179Z,3.47
2022-10-25T07:33:03.739Z,3.55
2022-10-25T07:35:46.841Z,4.07
2022-10-25T07:41:13.106Z,3.88
2022-10-25T07:46:31.404Z,4.15
2022-10-25T07:49:12.513Z,4.05
2022-10-25T07:51:45.207Z,4.30
2022-10-25T07:54:28.954Z,3.53
2022-10-25T07:56:58.152Z,4.05
2022-10-25T07:59:30.914Z,4.25
2022-10-25T08:02:02.612Z,4.10
2022-10-25T08:04:37.436Z,3.58
2022-10-25T08:07:11.133Z,4.00
2022-10-25T08:09:42.181Z,3.80
2022-10-25T08:12:22.627Z,3.53
2022-10-25T08:15:02.572Z,3.33
2022-10-25T08:17:33.326Z,3.53
2022-10-25T08:20:07.323Z,4.30
2022-10-25T08:28:56.864Z,3.30
2022-10-25T08:31:46.551Z,3.30
2022-10-25T08:34:15.648Z,3.13
2022-10-25T08:36:42.051Z,3.33
2022-10-25T08:39:18.918Z,3.22
2022-10-25T08:42:14.885Z,3.25
2022-10-25T08:44:58.520Z,3.17
2022-10-25T08:47:42.020Z,2.63
2022-10-25T08:53:08.793Z,3.03
2022-10-25T08:55:44.616Z,3.35
2022-10-25T08:58:44.773Z,3.15
2022-10-25T09:01:19.278Z,2.40
2022-10-25T09:03:56.289Z,2.58
2022-10-25T09:09:30.309Z,2.70
2022-10-25T09:12:17.562Z,2.97
2022-10-25T09:14:48.608Z,2.30
2022-10-25T09:17:33.069Z,2.50
2022-10-25T09:20:05.810Z,3.97
2022-10-25T09:22:52.931Z,3.38
2022-10-25T09:25:36.921Z,3.20
2022-10-25T09:28:08.731Z,3.20
2022-10-25T09:30:40.348Z,3.78
2022-10-25T09:35:56.678Z,3.38
2022-10-25T09:41:33.600Z,3.00
2022-10-25T09:44:16.297Z,2.75
2022-10-25T09:47:15.438Z,3.03
2022-10-25T09:55:38.916Z,3.55
2022-10-25T09:58:05.720Z,2.83
2022-10-25T10:03:30.352Z,2.88
2022-10-25T10:06:07.931Z,2.60
2022-10-25T10:11:37.959Z,2.80
2022-10-25T10:14:21.473Z,2.97
2022-10-25T10:16:49.441Z,3.00
2022-10-25T10:19:24.833Z,2.38
2022-10-25T10:22:04.307Z,2.65
2022-10-25T10:24:39.098Z,2.30
2022-10-25T10:27:10.068Z,2.83
2022-10-25T10:29:56.062Z,2.42
2022-10-25T10:32:46.494Z,2.13
2022-10-25T10:35:43.264Z,2.30
2022-10-25T10:38:33.432Z,2.70
2022-10-25T10:41:26.422Z,2.35
2022-10-25T10:44:14.096Z,2.33
2022-10-25T10:46:59.660Z,2.25
2022-10-25T10:49:36.357Z,2.83
2022-10-25T10:52:09.395Z,2.08
2022-10-25T10:54:46.333Z,3.05
2022-10-25T10:57:32.950Z,2.33
2022-10-25T10:59:59.884Z,2.53
2022-10-25T11:02:32.854Z,2.60
2022-10-25T11:05:04.877Z,2.65
2022-10-25T11:10:17.659Z,2.42
2022-10-25T11:12:50.284Z,2.42
2022-10-25T11:15:19.167Z,2.38
2022-10-25T11:18:00.434Z,2.90
2022-10-25T11:20:32.217Z,2.45
2022-10-25T11:23:09.902Z,2.67
2022-10-25T11:25:47.302Z,2.30
2022-10-25T11:28:53.545Z,2.83
2022-10-25T11:31:47.361Z,2.70
2022-10-25T11:34:23.765Z,2.75
2022-10-25T11:37:11.869Z,2.97
2022-10-25T11:40:13.522Z,2.50
2022-10-25T11:43:01.575Z,2.65
2022-10-25T11:45:52.650Z,2.72
2022-10-25T11:48:27.041Z,2.63
2022-10-25T11:50:59.925Z,3.25
2022-10-25T11:53:38.862Z,2.47
2022-10-25T11:56:19.175Z,2.03
2022-10-25T11:59:24.865Z,2.70
2022-10-25T12:01:54.787Z,2.20
2022-10-25T12:04:46.223Z,2.30
2022-10-25T12:07:27.821Z,2.50
2022-10-25T12:10:03.776Z,2.47
2022-10-25T12:12:49.649Z,2.50
2022-10-25T12:15:21.965Z,2.30
2022-10-25T12:17:48.767Z,2.40
2022-10-25T12:20:37.552Z,2.28
2022-10-25T12:23:21.625Z,1.75
2022-10-25T12:26:10.888Z,2.10
2022-10-25T12:29:03.607Z,2.40
2022-10-25T12:31:49.491Z,2.50
2022-10-25T12:34:53.483Z,1.95
2022-10-25T12:40:41.578Z,1.90
2022-10-25T12:43:28.877Z,2.17
2022-10-25T12:46:09.251Z,1.92
2022-10-25T12:49:05.172Z,2.33
2022-10-25T12:51:36.618Z,1.98
2022-10-25T12:54:28.788Z,2.00
2022-10-25T12:57:28.262Z,2.10
2022-10-25T13:03:19.327Z,1.90
2022-10-25T13:06:01.149Z,2.20
2022-10-25T13:08:34.383Z,2.10
2022-10-25T13:11:19.120Z,1.70
2022-10-25T13:14:00.986Z,2.00
2022-10-25T13:16:50.227Z,1.90
2022-10-25T13:22:27.933Z,1.80
2022-10-25T13:24:57.636Z,1.73
2022-10-25T13:27:34.778Z,1.85
2022-10-25T13:30:06.424Z,1.65
2022-10-25T13:32:39.462Z,2.08
2022-10-25T13:41:25.830Z,1.38
2022-10-25T13:44:09.208Z,2.05
2022-10-25T13:49:29.438Z,2.15
2022-10-25T13:54:56.268Z,2.60
2022-10-25T13:57:44.572Z,2.28
2022-10-25T14:00:26.063Z,2.05
2022-10-25T14:03:20.263Z,1.80
2022-10-25T14:06:22.569Z,1.95
2022-10-25T14:14:58.571Z,1.33
2022-10-25T14:17:41.559Z,1.35
2022-10-25T14:20:30.100Z,1.42
2022-10-25T14:26:22.415Z,1.30
2022-10-25T14:29:17.128Z,1.15
2022-10-25T14:31:44.069Z,1.70
2022-10-25T14:34:22.747Z,1.73
2022-10-25T14:39:58.557Z,1.52
2022-10-25T14:42:36.710Z,2.10
2022-10-25T14:45:03.221Z,2.33
2022-10-25T14:47:33.973Z,2.13
2022-10-25T14:50:12.162Z,1.73
2022-10-25T14:52:52.486Z,1.55
2022-10-25T14:58:06.926Z,1.60
2022-10-25T15:00:35.798Z,1.58
2022-10-25T15:05:49.576Z,1.90
2022-10-25T15:08:34.782Z,1.63
2022-10-25T15:11:39.663Z,1.27
2022-10-25T15:14:15.426Z,1.60
2022-10-25T15:16:52.225Z,1.83
2022-10-25T15:19:28.518Z,1.73
2022-10-25T15:22:13.044Z,1.80
2022-10-25T15:24:49.057Z,2.15
2022-10-25T15:30:35.280Z,2.35
2022-10-25T15:33:16.084Z,1.75
2022-10-25T15:35:53.741Z,2.00
2022-10-25T15:38:47.721Z,1.70
2022-10-25T15:41:28.632Z,2.03
2022-10-25T15:44:00.658Z,1.75
2022-10-25T15:46:31.380Z,1.70
2022-10-25T15:49:03.215Z,1.70
2022-10-25T15:54:35.285Z,1.58
2022-10-25T15:57:12.780Z,1.60
2022-10-25T15:59:42.517Z,1.50
2022-10-25T16:02:21.049Z,2.53
2022-10-25T16:05:04.628Z,1.65
2022-10-25T16:07:45.498Z,2.63
2022-10-25T16:10:12.514Z,1.58
2022-10-25T16:12:57.110Z,1.50
2022-10-25T16:18:54.527Z,1.40
2022-10-25T16:21:29.040Z,1.40
2022-10-25T16:23:58.509Z,1.67
2022-10-25T16:26:54.701Z,1.27
2022-10-25T16:29:25.609Z,1.52
2022-10-25T16:34:38.226Z,1.60
2022-10-25T16:37:12.309Z,1.65
2022-10-25T16:39:41.668Z,1.52
2022-10-25T16:44:45.590Z,2.70
2022-10-25T16:47:14.570Z,3.00
2022-10-25T16:49:51.809Z,3.30
2022-10-25T16:52:26.339Z,2.80
2022-10-25T16:55:03.404Z,2.95
2022-10-25T16:57:30.089Z,2.20
2022-10-25T17:00:06.000Z,2.03
2022-10-25T17:02:37.493Z,1.90
2022-10-25T17:05:06.817Z,2.20
2022-10-25T17:10:04.368Z,2.00
2022-10-25T17:12:49.802Z,1.90
2022-10-25T17:15:23.742Z,1.92
2022-10-25T17:17:53.369Z,1.60
2022-10-25T17:20:27.683Z,1.77
2022-10-25T17:23:05.071Z,1.85
2022-10-25T17:28:12.155Z,1.48
2022-10-25T17:31:05.451Z,1.90
2022-10-25T17:33:44.947Z,1.83
2022-10-25T17:36:22.183Z,2.30
2022-10-25T17:39:00.552Z,1.70
2022-10-25T17:41:45.710Z,1.92
2022-10-25T17:44:20.588Z,1.92
2022-10-25T17:46:57.297Z,1.92
2022-10-25T17:49:31.426Z,1.95
2022-10-25T17:54:50.781Z,1.77
2022-10-25T17:59:59.432Z,2.15
2022-10-25T18:02:35.267Z,1.90
2022-10-25T18:05:23.709Z,2.13
2022-10-25T18:08:01.049Z,1.73
2022-10-25T18:10:47.595Z,2.03
2022-10-25T18:13:29.371Z,1.95
2022-10-25T18:16:32.061Z,2.47
2022-10-25T18:19:11.662Z,1.90
2022-10-25T18:22:02.278Z,2.30
2022-10-25T18:24:36.273Z,2.08
2022-10-25T18:27:24.361Z,2.10
2022-10-25T18:32:36.493Z,2.05
2022-10-25T18:35:17.795Z,2.17
2022-10-25T18:37:48.311Z,2.30
2022-10-25T18:40:21.682Z,1.67
2022-10-25T18:42:54.246Z,2.20
2022-10-25T18:45:29.563Z,2.00
2022-10-25T18:47:59.796Z,1.95
2022-10-25T18:50:36.971Z,1.70
2022-10-25T18:53:12.325Z,2.28
2022-10-25T18:55:47.656Z,2.30
2022-10-25T18:58:28.080Z,2.17
2022-10-25T19:01:12.602Z,2.17
2022-10-25T19:03:42.416Z,1.90
2022-10-25T19:06:16.111Z,2.33
2022-10-25T19:09:05.719Z,2.08
2022-10-25T19:11:36.254Z,2.25
2022-10-25T19:19:59.019Z,1.88
2022-10-25T19:22:38.819Z,2.28
2022-10-25T19:27:48.444Z,2.25
2022-10-25T19:30:25.615Z,2.47
2022-10-25T19:32:54.171Z,2.20
2022-10-25T19:35:43.392Z,2.07
2022-10-25T19:40:40.363Z,2.58
2022-10-25T19:43:08.989Z,2.22
2022-10-25T19:45:45.353Z,2.05
2022-10-25T19:48:19.824Z,2.20
2022-10-25T19:50:58.748Z,2.33
2022-10-25T19:56:40.292Z,2.10
2022-10-25T20:02:31.530Z,2.70
2022-10-25T20:05:13.095Z,2.55
2022-10-25T20:07:45.999Z,2.28
2022-10-25T20:10:48.100Z,2.40
2022-10-25T20:16:51.894Z,2.38
2022-10-25T20:19:28.009Z,2.20
2022-10-25T20:21:55.921Z,2.53
2022-10-25T20:24:27.553Z,2.33
2022-10-25T20:32:44.677Z,2.45
2022-10-25T20:35:13.289Z,2.47
2022-10-25T20:37:52.017Z,2.17
2022-10-25T20:40:43.304Z,2.40
2022-10-25T20:43:13.131Z,2.45
2022-10-25T20:45:42.863Z,2.80
2022-10-25T20:48:27.633Z,2.95
2022-10-25T20:53:51.655Z,2.45
2022-10-25T20:56:26.350Z,2.22
2022-10-25T20:58:55.691Z,2.55
2022-10-25T21:04:02.414Z,2.40
2022-10-25T21:06:40.033Z,2.50
2022-10-25T21:09:16.907Z,2.45
2022-10-25T21:14:37.163Z,2.40
2022-10-25T21:17:12.996Z,2.13
2022-10-25T21:19:46.867Z,3.55
2022-10-25T21:22:18.490Z,3.22
2022-10-25T21:24:56.577Z,2.28
2022-10-25T21:27:23.234Z,2.45
2022-10-25T21:29:51.906Z,2.60
2022-10-25T21:32:22.805Z,2.17
2022-10-25T21:34:49.287Z,2.25
2022-10-25T21:37:15.877Z,2.15
2022-10-25T21:39:49.809Z,2.40
2022-10-25T21:42:20.513Z,2.72
2022-10-25T21:44:51.952Z,2.10
2022-10-25T21:47:18.610Z,2.58
2022-10-25T21:52:27.989Z,2.80
2022-10-25T21:54:57.425Z,2.53
2022-10-25T21:59:52.023Z,2.00
2022-10-25T22:05:12.214Z,2.38
2022-10-25T22:07:38.663Z,2.50
2022-10-25T22:10:19.049Z,2.60
2022-10-25T22:12:48.691Z,2.70
2022-10-25T22:15:15.300Z,2.33
2022-10-25T22:17:42.962Z,2.85
2022-10-25T22:20:14.865Z,2.85
2022-10-25T22:22:44.222Z,2.92
2022-10-25T22:25:10.698Z,2.33
2022-10-25T22:27:37.239Z,3.00
2022-10-25T22:30:11.546Z,2.63
2022-10-25T22:32:38.009Z,2.58
2022-10-25T22:35:13.908Z,2.80
2022-10-25T22:37:42.271Z,2.55
2022-10-25T22:40:17.746Z,2.75
2022-10-25T22:42:44.220Z,2.38
2022-10-25T22:45:13.937Z,2.65
2022-10-25T22:47:40.998Z,2.50
2022-10-25T22:50:12.396Z,2.65
2022-10-25T22:52:38.876Z,2.50
2022-10-25T22:55:11.307Z,2.60
2022-10-25T22:57:41.465Z,2.63
2022-10-25T23:00:13.086Z,2.85
2022-10-25T23:02:39.751Z,2.75
2022-10-25T23:05:07.597Z,2.60
2022-10-25T23:07:34.166Z,3.10
2022-10-25T23:10:03.737Z,1.95
2022-10-25T23:12:30.304Z,2.33
2022-10-25T23:15:02.881Z,2.15
2022-10-25T23:17:38.776Z,2.40
2022-10-25T23:20:13.340Z,2.83
2022-10-25T23:22:49.778Z,2.78
2022-10-25T23:25:24.819Z,2.38
2022-10-25T23:28:03.634Z,2.55
2022-10-25T23:30:34.385Z,2.78
2022-10-25T23:33:06.115Z,2.60
2022-10-25T23:35:34.194Z,2.78
2022-10-25T23:38:05.908Z,2.60
2022-10-25T23:40:37.747Z,2.88
2022-10-25T23:48:26.935Z,2.83
2022-10-25T23:51:22.155Z,2.90
2022-10-25T23:53:52.410Z,4.07
2022-10-25T23:56:21.096Z,3.22
2022-10-25T23:59:01.958Z,3.00
